Time;durP1;ratioP1;P1;durP2;ratioP2;P2;SDS_P1;SDS_P2;PMS_P1;PMS_P2;Temp;Humidity;BMP_temperature;BMP_pressure;BME280_temperature;BME280_humidity;BME280_pressure;Samples;Min_cycle;Max_cycle;Signal;HPM_P1;HPM_P2
2023/12/05 00:00:08;;;;;;;;;;;17.40;47.90;;;;;;1505919;78;812;-61
2023/12/05 00:02:15;;;;;;;;;;;17.40;47.90;;;;;;1506405;78;1937;-60
2023/12/05 00:04:17;;;;;;;;;;;17.60;48.00;;;;;;1504312;78;1108;-61
2023/12/05 00:06:19;;;;;;;;;;;17.40;47.90;;;;;;1558337;75;733;-60
2023/12/05 00:08:20;;;;;;;;;;;17.40;47.90;;;;;;1552381;75;1495;-62
2023/12/05 00:10:22;;;;;;;;;;;17.40;47.90;;;;;;1553836;75;855;-62
2023/12/05 00:12:24;;;;;;;;;;;17.40;47.90;;;;;;1562512;75;1136;-61
2023/12/05 00:14:26;;;;;;;;;;;17.40;47.90;;;;;;1554404;75;705;-61
2023/12/05 00:16:28;;;;;;;;;;;17.40;47.90;;;;;;1557587;75;664;-61
2023/12/05 00:18:31;;;;;;;;;;;17.40;48.00;;;;;;1559454;75;766;-61
2023/12/05 00:20:33;;;;;;;;;;;17.40;47.90;;;;;;1551413;75;705;-60
2023/12/05 00:22:36;;;;;;;;;;;16.90;47.80;;;;;;1550635;75;1941;-61
2023/12/05 00:24:38;;;;;;;;;;;17.40;47.90;;;;;;1554886;75;815;-61
2023/12/05 00:26:40;;;;;;;;;;;17.40;48.00;;;;;;1558394;75;832;-61
2023/12/05 00:28:41;;;;;;;;;;;17.40;47.90;;;;;;1558812;75;782;-61
2023/12/05 00:30:43;;;;;;;;;;;17.40;47.90;;;;;;1556058;75;846;-61
2023/12/05 00:32:45;;;;;;;;;;;17.40;48.00;;;;;;1554690;75;1117;-61
2023/12/05 00:34:47;;;;;;;;;;;17.40;47.90;;;;;;1556113;75;654;-61
2023/12/05 00:36:49;;;;;;;;;;;17.40;47.90;;;;;;1552246;75;1542;-61
2023/12/05 00:38:51;;;;;;;;;;;17.40;47.90;;;;;;1550274;74;719;-62
2023/12/05 00:40:53;;;;;;;;;;;17.40;47.90;;;;;;1546628;75;1109;-61
2023/12/05 00:42:54;;;;;;;;;;;17.40;47.90;;;;;;1542191;75;1947;-61
2023/12/05 00:44:56;;;;;;;;;;;17.40;48.00;;;;;;1554716;75;718;-61
2023/12/05 00:47:03;;;;;;;;;;;17.40;47.90;;;;;;1552649;75;681;-61
2023/12/05 00:49:03;;;;;;;;;;;17.40;47.90;;;;;;1549882;76;1414;-62
2023/12/05 00:51:05;;;;;;;;;;;17.40;47.90;;;;;;1550855;75;1589;-62
2023/12/05 00:53:07;;;;;;;;;;;17.40;47.90;;;;;;1552287;75;1147;-61
2023/12/05 00:55:09;;;;;;;;;;;17.40;47.90;;;;;;1552968;76;675;-62
2023/12/05 00:57:11;;;;;;;;;;;17.40;48.00;;;;;;1551500;75;716;-62
2023/12/05 00:59:13;;;;;;;;;;;17.40;47.90;;;;;;1549481;75;756;-62
2023/12/05 01:01:15;;;;;;;;;;;17.40;47.90;;;;;;1545287;75;806;-61
2023/12/05 01:03:17;;;;;;;;;;;17.40;48.00;;;;;;1547032;75;1927;-62
2023/12/05 01:05:19;;;;;;;;;;;17.40;48.00;;;;;;1543830;75;1629;-61
2023/12/05 01:07:20;;;;;;;;;;;17.40;48.00;;;;;;1552110;76;747;-62
2023/12/05 01:09:22;;;;;;;;;;;17.40;48.00;;;;;;1555738;75;765;-60
2023/12/05 01:11:24;;;;;;;;;;;17.40;47.90;;;;;;1550933;75;717;-61
2023/12/05 01:13:26;;;;;;;;;;;17.40;48.00;;;;;;1551025;75;1096;-62
2023/12/05 01:15:28;;;;;;;;;;;17.40;48.00;;;;;;1558963;75;692;-61
2023/12/05 01:17:30;;;;;;;;;;;17.40;48.00;;;;;;1554527;75;757;-61
2023/12/05 01:19:32;;;;;;;;;;;17.40;48.00;;;;;;1547237;75;1814;-61
2023/12/05 01:21:34;;;;;;;;;;;17.40;48.00;;;;;;1550723;75;803;-62
2023/12/05 01:23:36;;;;;;;;;;;17.40;48.00;;;;;;1550715;75;1923;-61
2023/12/05 01:25:38;;;;;;;;;;;17.40;48.00;;;;;;1555985;75;790;-61
2023/12/05 01:27:40;;;;;;;;;;;17.40;48.10;;;;;;1548439;75;720;-61
2023/12/05 01:29:42;;;;;;;;;;;17.40;48.00;;;;;;1553975;75;751;-61
2023/12/05 01:31:44;;;;;;;;;;;17.40;48.00;;;;;;1550329;76;890;-61
2023/12/05 01:33:46;;;;;;;;;;;17.40;48.00;;;;;;1548688;75;1448;-62
2023/12/05 01:35:48;;;;;;;;;;;17.40;48.00;;;;;;1547922;75;769;-61
2023/12/05 01:37:50;;;;;;;;;;;17.40;48.00;;;;;;1544842;75;674;-61
2023/12/05 01:39:52;;;;;;;;;;;17.30;48.00;;;;;;1553972;76;760;-61
2023/12/05 01:41:54;;;;;;;;;;;17.30;48.00;;;;;;1566048;75;1943;-61
2023/12/05 01:43:56;;;;;;;;;;;17.40;48.10;;;;;;1534612;77;1136;-62
2023/12/05 01:45:57;;;;;;;;;;;17.40;48.10;;;;;;1528668;77;1511;-61
2023/12/05 01:47:59;;;;;;;;;;;17.40;48.10;;;;;;1499285;78;733;-61
2023/12/05 01:50:02;;;;;;;;;;;17.30;48.10;;;;;;1521259;77;730;-62
2023/12/05 01:52:04;;;;;;;;;;;17.40;48.10;;;;;;1506676;77;709;-60
2023/12/05 01:54:06;;;;;;;;;;;17.40;48.10;;;;;;1509850;77;1160;-61
2023/12/05 01:56:10;;;;;;;;;;;17.40;48.10;;;;;;1511856;78;765;-62
2023/12/05 01:58:11;;;;;;;;;;;17.30;48.10;;;;;;1526876;77;755;-61
2023/12/05 02:00:14;;;;;;;;;;;17.40;48.10;;;;;;1529203;76;1567;-61
2023/12/05 02:02:16;;;;;;;;;;;17.40;48.10;;;;;;1557126;75;1951;-61
2023/12/05 02:04:18;;;;;;;;;;;17.40;48.10;;;;;;1553068;75;1154;-61
2023/12/05 02:06:21;;;;;;;;;;;17.40;48.10;;;;;;1563003;75;740;-60
2023/12/05 02:08:23;;;;;;;;;;;17.40;48.10;;;;;;1550612;75;656;-61
2023/12/05 02:10:25;;;;;;;;;;;17.40;48.10;;;;;;1557030;75;729;-61
2023/12/05 02:12:26;;;;;;;;;;;17.40;48.10;;;;;;1556041;75;1113;-61
2023/12/05 02:14:28;;;;;;;;;;;17.40;48.10;;;;;;1553294;75;1303;-63
2023/12/05 02:16:31;;;;;;;;;;;17.40;48.10;;;;;;1555867;75;700;-58
2023/12/05 02:18:36;;;;;;;;;;;17.30;48.10;;;;;;1556973;75;733;-58
2023/12/05 02:20:40;;;;;;;;;;;17.30;48.10;;;;;;1559388;75;754;-61
2023/12/05 02:22:43;;;;;;;;;;;17.30;48.10;;;;;;1562707;75;1887;-61
2023/12/05 02:24:47;;;;;;;;;;;17.30;48.10;;;;;;1545125;75;1769;-62
2023/12/05 02:26:50;;;;;;;;;;;17.40;48.10;;;;;;1555093;75;586;-61
2023/12/05 02:28:52;;;;;;;;;;;17.30;48.20;;;;;;1554260;75;1780;-62
2023/12/05 02:30:54;;;;;;;;;;;17.40;48.20;;;;;;1560717;75;744;-61
2023/12/05 02:32:56;;;;;;;;;;;17.40;48.20;;;;;;1556338;75;1181;-61
2023/12/05 02:34:59;;;;;;;;;;;17.30;48.20;;;;;;1557376;75;795;-60
2023/12/05 02:37:03;;;;;;;;;;;17.30;48.20;;;;;;1560710;75;697;-62
2023/12/05 02:39:16;;;;;;;;;;;17.40;48.20;;;;;;1554021;75;681;-61
2023/12/05 02:41:21;;;;;;;;;;;17.30;48.20;;;;;;1556644;75;1942;-61
2023/12/05 02:43:27;;;;;;;;;;;17.30;48.20;;;;;;1538780;76;1932;-61
2023/12/05 02:45:30;;;;;;;;;;;17.40;48.20;;;;;;1537553;75;744;-61
2023/12/05 02:47:32;;;;;;;;;;;17.40;48.20;;;;;;1541078;76;709;-61
2023/12/05 02:49:34;;;;;;;;;;;17.30;48.20;;;;;;1534350;76;797;-61
2023/12/05 02:51:36;;;;;;;;;;;17.30;48.20;;;;;;1546664;76;774;-61
2023/12/05 02:53:38;;;;;;;;;;;17.30;48.10;;;;;;1545132;76;1190;-61
2023/12/05 02:55:40;;;;;;;;;;;17.30;48.20;;;;;;1537868;76;761;-61
2023/12/05 02:57:42;;;;;;;;;;;17.30;48.20;;;;;;1534100;75;1408;-62
2023/12/05 02:59:44;;;;;;;;;;;17.30;48.20;;;;;;1537373;76;747;-61
2023/12/05 03:01:45;;;;;;;;;;;17.30;48.20;;;;;;1538055;76;736;-62
2023/12/05 03:03:47;;;;;;;;;;;17.30;48.20;;;;;;1541461;76;1934;-60
2023/12/05 03:05:49;;;;;;;;;;;17.30;48.20;;;;;;1535764;76;771;-61
2023/12/05 03:07:51;;;;;;;;;;;17.30;48.20;;;;;;1538596;76;856;-61
2023/12/05 03:09:53;;;;;;;;;;;17.30;48.20;;;;;;1537127;76;661;-60
2023/12/05 03:11:55;;;;;;;;;;;17.40;48.20;;;;;;1536584;76;1553;-62
2023/12/05 03:13:57;;;;;;;;;;;17.30;48.30;;;;;;1545854;76;1143;-62
2023/12/05 03:15:59;;;;;;;;;;;17.30;48.30;;;;;;1538471;76;711;-60
2023/12/05 03:18:00;;;;;;;;;;;17.30;48.20;;;;;;1538850;76;678;-61
2023/12/05 03:20:02;;;;;;;;;;;17.30;48.30;;;;;;1536894;76;729;-60
2023/12/05 03:22:04;;;;;;;;;;;17.30;48.30;;;;;;1539100;76;793;-61
2023/12/05 03:24:06;;;;;;;;;;;17.30;48.20;;;;;;1539500;76;1951;-61
2023/12/05 03:26:08;;;;;;;;;;;17.30;48.30;;;;;;1544240;76;1302;-61
2023/12/05 03:28:10;;;;;;;;;;;17.30;48.30;;;;;;1535948;76;938;-61
2023/12/05 03:30:12;;;;;;;;;;;17.30;48.30;;;;;;1538112;76;800;-61
2023/12/05 03:32:14;;;;;;;;;;;17.30;48.30;;;;;;1534752;76;942;-61
2023/12/05 03:34:16;;;;;;;;;;;17.30;48.30;;;;;;1541945;76;1086;-61
2023/12/05 03:36:18;;;;;;;;;;;17.30;48.30;;;;;;1541259;76;730;-61
2023/12/05 03:38:20;;;;;;;;;;;17.30;48.30;;;;;;1539321;76;714;-61
2023/12/05 03:40:21;;;;;;;;;;;17.30;48.30;;;;;;1543248;75;1598;-60
2023/12/05 03:42:23;;;;;;;;;;;17.30;48.30;;;;;;1537073;76;1132;-61
2023/12/05 03:44:25;;;;;;;;;;;17.30;48.30;;;;;;1539452;76;1936;-62
2023/12/05 03:46:27;;;;;;;;;;;17.30;48.30;;;;;;1540796;76;603;-62
2023/12/05 03:48:29;;;;;;;;;;;17.30;48.30;;;;;;1544748;76;735;-62
2023/12/05 03:50:31;;;;;;;;;;;17.30;48.30;;;;;;1540142;76;664;-61
2023/12/05 03:52:33;;;;;;;;;;;17.30;48.30;;;;;;1540969;76;1291;-61
2023/12/05 03:54:35;;;;;;;;;;;17.30;48.40;;;;;;1541378;76;677;-61
2023/12/05 03:56:37;;;;;;;;;;;17.20;48.20;;;;;;1535369;76;808;-61
2023/12/05 03:58:39;;;;;;;;;;;17.30;48.30;;;;;;1537639;76;760;-61
2023/12/05 04:00:41;;;;;;;;;;;17.30;48.30;;;;;;1539806;76;698;-61
2023/12/05 04:02:43;;;;;;;;;;;17.30;48.30;;;;;;1536728;76;1953;-60
2023/12/05 04:04:45;;;;;;;;;;;17.30;48.40;;;;;;1539921;76;574;-61
2023/12/05 04:06:47;;;;;;;;;;;17.30;48.30;;;;;;1537611;76;1578;-58
2023/12/05 04:08:49;;;;;;;;;;;17.30;48.30;;;;;;1538755;76;760;-59
2023/12/05 04:10:51;;;;;;;;;;;17.20;48.20;;;;;;1538382;76;684;-59
2023/12/05 04:12:53;;;;;;;;;;;17.30;48.30;;;;;;1538094;76;1103;-58
2023/12/05 04:14:55;;;;;;;;;;;17.20;48.20;;;;;;1536725;76;700;-58
2023/12/05 04:16:57;;;;;;;;;;;17.30;48.30;;;;;;1542311;76;708;-57
2023/12/05 04:18:59;;;;;;;;;;;17.30;48.30;;;;;;1536198;76;951;-61
2023/12/05 04:21:01;;;;;;;;;;;17.20;48.20;;;;;;1534647;76;1325;-61
2023/12/05 04:23:03;;;;;;;;;;;17.30;48.30;;;;;;1543532;76;1936;-61
2023/12/05 04:25:05;;;;;;;;;;;17.30;48.40;;;;;;1546102;76;729;-58
2023/12/05 04:27:07;;;;;;;;;;;17.30;48.30;;;;;;1544918;76;777;-61
2023/12/05 04:29:10;;;;;;;;;;;17.20;48.20;;;;;;1539530;76;758;-61
2023/12/05 04:31:12;;;;;;;;;;;17.20;48.20;;;;;;1539752;75;710;-61
2023/12/05 04:33:14;;;;;;;;;;;17.30;48.30;;;;;;1537517;75;1131;-62
2023/12/05 04:35:15;;;;;;;;;;;17.20;48.10;;;;;;1543063;76;1527;-61
2023/12/05 04:37:17;;;;;;;;;;;17.20;48.10;;;;;;1538677;75;750;-61
2023/12/05 04:39:19;;;;;;;;;;;17.20;48.20;;;;;;1539901;76;732;-60
2023/12/05 04:41:21;;;;;;;;;;;17.30;48.30;;;;;;1537870;76;849;-60
2023/12/05 04:43:23;;;;;;;;;;;17.20;48.20;;;;;;1542233;76;1952;-61
2023/12/05 04:45:25;;;;;;;;;;;17.20;48.20;;;;;;1549692;76;775;-59
2023/12/05 04:47:27;;;;;;;;;;;17.30;48.30;;;;;;1539566;76;746;-59
2023/12/05 04:49:29;;;;;;;;;;;17.30;48.30;;;;;;1535657;76;1542;-59
2023/12/05 04:51:31;;;;;;;;;;;17.20;48.10;;;;;;1540186;76;714;-61
2023/12/05 04:53:33;;;;;;;;;;;17.30;48.30;;;;;;1539383;76;1139;-60
2023/12/05 04:55:35;;;;;;;;;;;17.30;48.30;;;;;;1537947;76;802;-61
2023/12/05 04:57:37;;;;;;;;;;;17.30;48.30;;;;;;1542472;76;766;-61
2023/12/05 04:59:39;;;;;;;;;;;17.20;48.10;;;;;;1534598;76;683;-60
2023/12/05 05:01:41;;;;;;;;;;;17.30;48.20;;;;;;1539279;76;789;-59
2023/12/05 05:03:42;;;;;;;;;;;17.30;48.30;;;;;;1538164;76;1953;-61
2023/12/05 05:05:44;;;;;;;;;;;17.30;48.30;;;;;;1544510;76;802;-59
2023/12/05 05:07:46;;;;;;;;;;;17.20;48.10;;;;;;1541574;76;723;-59
2023/12/05 05:09:49;;;;;;;;;;;17.30;48.20;;;;;;1546539;76;709;-58
2023/12/05 05:11:51;;;;;;;;;;;17.20;48.10;;;;;;1539815;76;806;-61
2023/12/05 05:13:53;;;;;;;;;;;17.20;48.10;;;;;;1544176;76;1158;-58
2023/12/05 05:15:55;;;;;;;;;;;17.30;48.20;;;;;;1544247;76;776;-57
2023/12/05 05:17:56;;;;;;;;;;;17.30;48.20;;;;;;1546174;76;1579;-58
2023/12/05 05:19:58;;;;;;;;;;;17.30;48.20;;;;;;1548901;76;805;-59
2023/12/05 05:22:00;;;;;;;;;;;17.30;48.20;;;;;;1546782;76;726;-58
2023/12/05 05:24:02;;;;;;;;;;;17.30;48.20;;;;;;1536215;76;1929;-58
2023/12/05 05:26:04;;;;;;;;;;;17.30;48.20;;;;;;1540080;76;678;-59
2023/12/05 05:28:09;;;;;;;;;;;17.30;48.10;;;;;;1534987;76;711;-61
2023/12/05 05:30:10;;;;;;;;;;;17.30;48.20;;;;;;1537670;76;993;-59
2023/12/05 05:32:12;;;;;;;;;;;17.30;48.20;;;;;;1537752;76;1570;-61
2023/12/05 05:34:14;;;;;;;;;;;17.30;48.20;;;;;;1539937;76;1131;-59
2023/12/05 05:36:16;;;;;;;;;;;17.30;48.20;;;;;;1540458;75;695;-59
2023/12/05 05:38:18;;;;;;;;;;;17.30;48.20;;;;;;1542504;76;724;-57
2023/12/05 05:40:20;;;;;;;;;;;17.30;48.20;;;;;;1538690;75;794;-59
2023/12/05 05:42:21;;;;;;;;;;;17.30;48.20;;;;;;1535173;76;1141;-58
2023/12/05 05:44:23;;;;;;;;;;;17.30;48.20;;;;;;1527090;76;1940;-58
2023/12/05 05:46:25;;;;;;;;;;;17.30;48.20;;;;;;1530890;76;1518;-57
2023/12/05 05:48:30;;;;;;;;;;;17.30;48.20;;;;;;1526663;76;812;-57
2023/12/05 05:50:32;;;;;;;;;;;17.40;48.10;;;;;;1528916;76;726;-56
2023/12/05 05:52:34;;;;;;;;;;;17.40;48.10;;;;;;1532265;76;1176;-58
2023/12/05 05:54:36;;;;;;;;;;;17.30;48.10;;;;;;1537231;76;791;-58
2023/12/05 05:56:39;;;;;;;;;;;17.30;48.10;;;;;;1538816;76;804;-57
2023/12/05 05:58:41;;;;;;;;;;;17.40;48.10;;;;;;1527609;76;655;-60
2023/12/05 06:00:43;;;;;;;;;;;17.30;48.10;;;;;;1533542;76;1579;-58
2023/12/05 06:02:47;;;;;;;;;;;17.30;48.10;;;;;;1530672;76;1164;-57
2023/12/05 06:04:49;;;;;;;;;;;17.30;48.10;;;;;;1535714;76;1927;-59
2023/12/05 06:06:51;;;;;;;;;;;17.30;48.10;;;;;;1529047;76;774;-59
2023/12/05 06:08:53;;;;;;;;;;;17.30;48.10;;;;;;1531802;76;716;-58
2023/12/05 06:10:55;;;;;;;;;;;17.30;48.10;;;;;;1533984;76;682;-57
2023/12/05 06:12:57;;;;;;;;;;;17.30;48.00;;;;;;1533227;76;1132;-58
2023/12/05 06:14:59;;;;;;;;;;;17.30;48.10;;;;;;1528447;76;1670;-58
2023/12/05 06:17:02;;;;;;;;;;;17.30;48.00;;;;;;1540920;76;820;-58
2023/12/05 06:19:04;;;;;;;;;;;17.30;48.00;;;;;;1533673;76;783;-56
2023/12/05 06:21:06;;;;;;;;;;;17.30;48.00;;;;;;1536578;76;715;-57
2023/12/05 06:23:08;;;;;;;;;;;17.30;48.00;;;;;;1536805;76;1114;-58
2023/12/05 06:25:10;;;;;;;;;;;17.30;48.10;;;;;;1536938;75;1924;-59
2023/12/05 06:27:12;;;;;;;;;;;17.30;48.10;;;;;;1537657;76;1521;-57
2023/12/05 06:29:14;;;;;;;;;;;17.30;48.10;;;;;;1534581;76;808;-59
2023/12/05 06:31:16;;;;;;;;;;;17.30;48.00;;;;;;1527923;76;756;-57
2023/12/05 06:33:17;;;;;;;;;;;17.30;48.00;;;;;;1529414;76;1130;-58
2023/12/05 06:35:19;;;;;;;;;;;17.30;48.00;;;;;;1522168;76;655;-59
2023/12/05 06:37:21;;;;;;;;;;;17.30;48.00;;;;;;1538891;76;682;-59
2023/12/05 06:39:25;;;;;;;;;;;17.40;48.00;;;;;;1531453;75;908;-59
2023/12/05 06:41:27;;;;;;;;;;;17.30;48.00;;;;;;1531708;75;1503;-58
2023/12/05 06:43:28;;;;;;;;;;;17.30;48.00;;;;;;1532380;75;1165;-60
2023/12/05 06:45:30;;;;;;;;;;;17.30;48.00;;;;;;1549456;76;1928;-57
2023/12/05 06:47:33;;;;;;;;;;;17.30;48.00;;;;;;1537741;76;747;-58
2023/12/05 06:49:35;;;;;;;;;;;17.30;48.00;;;;;;1543846;76;738;-59
2023/12/05 06:51:37;;;;;;;;;;;17.30;48.00;;;;;;1543700;76;788;-57
2023/12/05 06:53:39;;;;;;;;;;;17.30;48.00;;;;;;1546135;76;1201;-60
2023/12/05 06:55:42;;;;;;;;;;;17.30;48.00;;;;;;1539868;76;1555;-58
2023/12/05 06:57:44;;;;;;;;;;;17.30;48.00;;;;;;1511999;77;727;-60
2023/12/05 06:59:45;;;;;;;;;;;17.30;48.00;;;;;;1501979;77;691;-60
2023/12/05 07:01:47;;;;;;;;;;;17.30;48.00;;;;;;1485904;78;688;-58
2023/12/05 07:03:49;;;;;;;;;;;17.30;48.00;;;;;;1489104;78;1947;-60
2023/12/05 07:05:51;;;;;;;;;;;17.30;48.00;;;;;;1489785;78;762;-59
2023/12/05 07:07:53;;;;;;;;;;;17.20;47.90;;;;;;1498887;78;655;-60
2023/12/05 07:09:55;;;;;;;;;;;17.30;48.00;;;;;;1510583;77;1600;-59
2023/12/05 07:11:57;;;;;;;;;;;17.30;48.00;;;;;;1490364;78;768;-57
2023/12/05 07:13:59;;;;;;;;;;;17.30;47.90;;;;;;1497177;78;1070;-60
2023/12/05 07:16:01;;;;;;;;;;;17.30;48.00;;;;;;1515896;77;787;-58
2023/12/05 07:18:03;;;;;;;;;;;17.30;48.00;;;;;;1493830;78;701;-58
2023/12/05 07:20:06;;;;;;;;;;;17.30;48.00;;;;;;1493146;78;789;-59
2023/12/05 07:22:08;;;;;;;;;;;17.30;48.00;;;;;;1491531;78;786;-60
2023/12/05 07:24:10;;;;;;;;;;;17.30;48.10;;;;;;1498934;78;1946;-58
2023/12/05 07:26:12;;;;;;;;;;;17.40;48.00;;;;;;1517634;77;765;-60
2023/12/05 07:28:13;;;;;;;;;;;17.30;48.00;;;;;;1519403;77;696;-59
2023/12/05 07:30:16;;;;;;;;;;;17.30;48.00;;;;;;1487247;78;689;-60
2023/12/05 07:32:19;;;;;;;;;;;17.30;48.10;;;;;;1491864;78;781;-58
2023/12/05 07:34:21;;;;;;;;;;;17.30;48.00;;;;;;1516527;77;1158;-58
2023/12/05 07:36:23;;;;;;;;;;;17.30;48.10;;;;;;1487578;78;694;-59
2023/12/05 07:38:25;;;;;;;;;;;17.30;48.00;;;;;;1491470;78;1502;-59
2023/12/05 07:40:27;;;;;;;;;;;17.30;48.10;;;;;;1488600;78;584;-56
2023/12/05 07:42:29;;;;;;;;;;;17.30;48.10;;;;;;1494721;78;1132;-61
2023/12/05 07:44:31;;;;;;;;;;;17.30;48.10;;;;;;1527114;76;1955;-61
2023/12/05 07:46:33;;;;;;;;;;;17.30;48.10;;;;;;1551197;75;794;-59
2023/12/05 07:48:35;;;;;;;;;;;17.30;48.10;;;;;;1549481;76;741;-56
2023/12/05 07:50:37;;;;;;;;;;;17.30;48.10;;;;;;1555481;75;735;-60
2023/12/05 07:52:39;;;;;;;;;;;17.30;48.10;;;;;;1557879;75;1583;-58
2023/12/05 07:54:41;;;;;;;;;;;17.30;48.10;;;;;;1556052;75;733;-57
2023/12/05 07:56:43;;;;;;;;;;;17.30;48.10;;;;;;1548281;76;636;-60
2023/12/05 07:58:45;;;;;;;;;;;17.30;48.10;;;;;;1522610;77;758;-57
2023/12/05 08:00:47;;;;;;;;;;;17.30;48.10;;;;;;1497245;78;769;-60
2023/12/05 08:02:49;;;;;;;;;;;17.30;48.10;;;;;;1499307;78;1132;-59
2023/12/05 08:04:50;;;;;;;;;;;17.30;48.10;;;;;;1505414;78;1930;-60
2023/12/05 08:06:52;;;;;;;;;;;17.30;48.10;;;;;;1504166;78;1575;-60
2023/12/05 08:08:54;;;;;;;;;;;17.30;48.10;;;;;;1506545;78;784;-60
2023/12/05 08:10:58;;;;;;;;;;;17.30;48.10;;;;;;1507029;78;754;-58
2023/12/05 08:13:00;;;;;;;;;;;17.30;48.10;;;;;;1506541;78;1584;-60
2023/12/05 08:15:03;;;;;;;;;;;17.30;48.10;;;;;;1504008;78;702;-60
2023/12/05 08:17:05;;;;;;;;;;;17.30;48.10;;;;;;1503527;78;744;-59
2023/12/05 08:19:07;;;;;;;;;;;17.30;48.10;;;;;;1500903;78;689;-58
2023/12/05 08:21:09;;;;;;;;;;;17.30;48.10;;;;;;1503023;78;1558;-59
2023/12/05 08:23:11;;;;;;;;;;;17.40;48.10;;;;;;1507380;78;1155;-59
2023/12/05 08:25:12;;;;;;;;;;;17.40;48.10;;;;;;1504376;78;1929;-59
2023/12/05 08:27:14;;;;;;;;;;;17.30;48.10;;;;;;1500763;78;876;-57
2023/12/05 08:29:16;;;;;;;;;;;17.40;48.10;;;;;;1506732;78;744;-59
2023/12/05 08:31:18;;;;;;;;;;;17.40;48.10;;;;;;1507203;78;842;-60
2023/12/05 08:33:20;;;;;;;;;;;17.40;48.10;;;;;;1500020;78;1137;-58
2023/12/05 08:35:22;;;;;;;;;;;17.40;48.10;;;;;;1499731;78;1605;-59
2023/12/05 08:37:24;;;;;;;;;;;17.40;48.00;;;;;;1501501;78;613;-59
2023/12/05 08:39:26;;;;;;;;;;;17.40;48.00;;;;;;1496543;78;627;-60
2023/12/05 08:41:27;;;;;;;;;;;17.30;48.00;;;;;;1502097;78;693;-60
2023/12/05 08:43:29;;;;;;;;;;;17.40;48.00;;;;;;1504609;78;1172;-58
2023/12/05 08:45:32;;;;;;;;;;;17.50;48.10;;;;;;1496138;78;1934;-58
2023/12/05 08:47:34;;;;;;;;;;;17.40;48.00;;;;;;1531522;77;726;-59
2023/12/05 08:49:36;;;;;;;;;;;17.40;48.00;;;;;;1501030;78;1551;-58
2023/12/05 08:51:38;;;;;;;;;;;17.40;48.00;;;;;;1500914;77;740;-59
2023/12/05 08:53:39;;;;;;;;;;;17.40;48.00;;;;;;1516076;78;1164;-61
2023/12/05 08:55:42;;;;;;;;;;;17.40;48.00;;;;;;1472494;78;720;-58
2023/12/05 08:57:44;;;;;;;;;;;17.40;48.00;;;;;;1531768;77;768;-59
2023/12/05 08:59:46;;;;;;;;;;;17.40;47.90;;;;;;1534378;77;727;-60
2023/12/05 09:01:48;;;;;;;;;;;17.40;48.00;;;;;;1525855;76;669;-57
2023/12/05 09:03:50;;;;;;;;;;;17.40;48.00;;;;;;1526051;76;1604;-60
2023/12/05 09:05:53;;;;;;;;;;;17.40;48.00;;;;;;1532370;76;1949;-59
2023/12/05 09:07:55;;;;;;;;;;;17.40;48.00;;;;;;1527277;76;783;-60
2023/12/05 09:09:57;;;;;;;;;;;17.40;48.00;;;;;;1528443;77;677;-61
2023/12/05 09:12:01;;;;;;;;;;;17.40;48.00;;;;;;1535587;76;781;-60
2023/12/05 09:14:05;;;;;;;;;;;17.30;48.10;;;;;;1533596;76;1146;-60
2023/12/05 09:16:07;;;;;;;;;;;17.40;48.00;;;;;;1530700;77;1311;-59
2023/12/05 09:18:10;;;;;;;;;;;17.40;48.00;;;;;;1505394;77;722;-57
2023/12/05 09:20:12;;;;;;;;;;;17.40;48.10;;;;;;1525635;77;678;-57
2023/12/05 09:22:14;;;;;;;;;;;17.40;48.00;;;;;;1503939;78;602;-59
2023/12/05 09:24:16;;;;;;;;;;;17.40;48.00;;;;;;1524918;76;1038;-60
2023/12/05 09:26:18;;;;;;;;;;;17.40;48.00;;;;;;1531122;76;1920;-59
2023/12/05 09:28:20;;;;;;;;;;;17.40;48.00;;;;;;1536170;76;764;-59
2023/12/05 09:30:22;;;;;;;;;;;17.40;48.00;;;;;;1530571;77;1190;-61
2023/12/05 09:32:24;;;;;;;;;;;17.40;48.10;;;;;;1526810;77;1075;-59
2023/12/05 09:34:26;;;;;;;;;;;17.40;48.00;;;;;;1533905;77;770;-60
2023/12/05 09:36:28;;;;;;;;;;;17.40;48.00;;;;;;1533275;77;735;-61
2023/12/05 09:38:29;;;;;;;;;;;17.40;48.10;;;;;;1526212;77;746;-58
2023/12/05 09:40:31;;;;;;;;;;;17.40;48.10;;;;;;1531681;77;794;-59
2023/12/05 09:42:33;;;;;;;;;;;17.40;48.10;;;;;;1530988;77;1103;-59
2023/12/05 09:44:35;;;;;;;;;;;17.40;48.10;;;;;;1529899;77;1552;-58
2023/12/05 09:46:37;;;;;;;;;;;17.40;48.10;;;;;;1501635;77;1949;-59
2023/12/05 09:48:43;;;;;;;;;;;17.40;48.10;;;;;;1504659;78;770;-57
2023/12/05 09:50:45;;;;;;;;;;;17.40;48.10;;;;;;1507371;79;1948;-59
2023/12/05 09:52:47;;;;;;;;;;;17.40;48.10;;;;;;1509212;77;1160;-58
2023/12/05 09:54:49;;;;;;;;;;;17.40;48.10;;;;;;1505932;77;794;-59
2023/12/05 09:56:52;;;;;;;;;;;17.40;48.10;;;;;;1520774;77;792;-59
2023/12/05 09:58:54;;;;;;;;;;;17.40;48.10;;;;;;1515754;77;1554;-59
2023/12/05 10:00:56;;;;;;;;;;;17.30;48.10;;;;;;1518983;77;707;-60
2023/12/05 10:02:58;;;;;;;;;;;17.40;48.10;;;;;;1530605;77;1124;-60
2023/12/05 10:05:00;;;;;;;;;;;17.40;48.10;;;;;;1528694;77;1910;-60
2023/12/05 10:07:02;;;;;;;;;;;17.40;48.20;;;;;;1529068;77;781;-57
2023/12/05 10:09:06;;;;;;;;;;;17.40;48.20;;;;;;1519041;77;729;-59
2023/12/05 10:11:07;;;;;;;;;;;17.40;48.10;;;;;;1508455;77;1642;-60
2023/12/05 10:13:09;;;;;;;;;;;17.40;48.20;;;;;;1534974;77;1424;-60
2023/12/05 10:15:11;;;;;;;;;;;17.40;48.20;;;;;;1513498;77;717;-60
2023/12/05 10:17:14;;;;;;;;;;;17.40;48.10;;;;;;1511494;77;733;-61
2023/12/05 10:19:16;;;;;;;;;;;17.30;48.20;;;;;;1557484;75;716;-60
2023/12/05 10:21:17;;;;;;;;;;;17.40;48.10;;;;;;1558942;75;724;-59
2023/12/05 10:23:19;;;;;;;;;;;17.40;48.20;;;;;;1561218;75;1156;-60
2023/12/05 10:25:21;;;;;;;;;;;17.30;48.20;;;;;;1565394;75;1934;-60
2023/12/05 10:27:23;;;;;;;;;;;17.40;48.20;;;;;;1559042;75;1546;-59
2023/12/05 10:29:25;;;;;;;;;;;17.40;48.20;;;;;;1561865;75;725;-58
2023/12/05 10:31:27;;;;;;;;;;;17.40;48.20;;;;;;1535167;76;1047;-59
2023/12/05 10:33:29;;;;;;;;;;;17.40;48.20;;;;;;1555079;75;1160;-60
2023/12/05 10:35:31;;;;;;;;;;;17.40;48.20;;;;;;1557660;75;591;-59
2023/12/05 10:37:33;;;;;;;;;;;17.40;48.10;;;;;;1562916;75;888;-57
2023/12/05 10:39:35;;;;;;;;;;;17.30;48.30;;;;;;1559044;75;778;-60
2023/12/05 10:41:37;;;;;;;;;;;17.30;48.20;;;;;;1561282;75;1596;-61
2023/12/05 10:43:40;;;;;;;;;;;17.40;48.20;;;;;;1560583;75;1141;-60
2023/12/05 10:45:41;;;;;;;;;;;17.30;48.30;;;;;;1553149;75;1913;-61
2023/12/05 10:47:43;;;;;;;;;;;17.40;48.20;;;;;;1513443;77;1090;-61
2023/12/05 10:49:45;;;;;;;;;;;17.40;48.20;;;;;;1494793;79;792;-58
2023/12/05 10:51:47;;;;;;;;;;;17.40;48.20;;;;;;1492630;78;706;-60
2023/12/05 10:53:49;;;;;;;;;;;17.40;48.30;;;;;;1493083;77;1210;-60
2023/12/05 10:55:51;;;;;;;;;;;17.40;48.30;;;;;;1489489;77;1629;-60
2023/12/05 10:57:52;;;;;;;;;;;17.30;48.30;;;;;;1488265;78;794;-61
2023/12/05 10:59:54;;;;;;;;;;;17.40;48.20;;;;;;1494603;78;739;-60
2023/12/05 11:01:56;;;;;;;;;;;17.40;48.20;;;;;;1486692;78;743;-58
2023/12/05 11:04:00;;;;;;;;;;;17.40;48.20;;;;;;1485605;78;1141;-59
2023/12/05 11:06:02;;;;;;;;;;;17.40;48.20;;;;;;1517608;77;1906;-58
2023/12/05 11:08:04;;;;;;;;;;;17.40;48.20;;;;;;1516887;77;671;-60
2023/12/05 11:10:07;;;;;;;;;;;17.40;48.30;;;;;;1519467;77;1327;-61
2023/12/05 11:12:09;;;;;;;;;;;17.40;48.30;;;;;;1513333;77;739;-60
2023/12/05 11:14:11;;;;;;;;;;;17.40;48.30;;;;;;1489444;78;1131;-61
2023/12/05 11:16:14;;;;;;;;;;;17.40;48.30;;;;;;1494137;78;668;-61
2023/12/05 11:18:17;;;;;;;;;;;17.40;48.20;;;;;;1496781;78;623;-61
2023/12/05 11:20:39;;;;;;;;;;;17.40;48.10;;;;;;1496450;76;2050;-61
2023/12/05 11:22:42;;;;;;;;;;;17.40;48.20;;;;;;1573135;74;1486;-75
2023/12/05 11:24:46;;;;;;;;;;;17.40;48.20;;;;;;1575991;74;1193;-75
2023/12/05 11:26:49;;;;;;;;;;;17.40;48.20;;;;;;1581761;73;1919;-73
2023/12/05 11:29:07;;;;;;;;;;;17.40;48.10;;;;;;1593890;74;690;-76
2023/12/05 11:31:27;;;;;;;;;;;17.50;48.30;;;;;;1579693;73;952;-76
2023/12/05 11:33:47;;;;;;;;;;;17.40;48.10;;;;;;1581534;74;1087;-75
2023/12/05 11:35:51;;;;;;;;;;;17.40;48.10;;;;;;1578015;74;674;-76
2023/12/05 11:38:12;;;;;;;;;;;17.50;48.20;;;;;;1530479;74;1603;-75
2023/12/05 11:40:14;;;;;;;;;;;17.50;48.30;;;;;;1583661;74;757;-76
2023/12/05 11:42:16;;;;;;;;;;;17.50;48.20;;;;;;1579193;74;782;-76
2023/12/05 11:44:18;;;;;;;;;;;17.40;48.10;;;;;;1583749;73;1130;-77
2023/12/05 11:46:20;;;;;;;;;;;17.50;48.20;;;;;;1575228;74;1917;-78
2023/12/05 11:48:23;;;;;;;;;;;17.50;48.20;;;;;;1583496;73;616;-77
2023/12/05 11:50:25;;;;;;;;;;;17.50;48.20;;;;;;1582436;74;687;-76
2023/12/05 11:52:27;;;;;;;;;;;17.50;48.20;;;;;;1583681;73;1644;-75
2023/12/05 11:54:31;;;;;;;;;;;17.50;48.20;;;;;;1594139;74;1148;-77
2023/12/05 11:56:33;;;;;;;;;;;17.50;48.20;;;;;;1583863;74;1152;-74
2023/12/05 11:58:35;;;;;;;;;;;17.50;48.20;;;;;;1585371;73;722;-77
2023/12/05 12:00:37;;;;;;;;;;;17.50;48.30;;;;;;1587068;74;721;-77
2023/12/05 12:02:41;;;;;;;;;;;17.50;48.30;;;;;;1566369;74;707;-76
2023/12/05 12:04:43;;;;;;;;;;;17.40;48.10;;;;;;1580989;74;1344;-76
2023/12/05 12:06:45;;;;;;;;;;;17.40;48.10;;;;;;1559748;74;1947;-76
2023/12/05 12:08:53;;;;;;;;;;;17.50;48.20;;;;;;1530241;76;609;-76